createdAt,value
2022-08-18T00:03:01.385Z,2.54
2022-08-18T00:08:04.017Z,2.28
2022-08-18T00:13:11.259Z,1.68
2022-08-18T00:18:18.367Z,2.39
2022-08-18T00:23:25.556Z,1.82
2022-08-18T00:28:32.749Z,2.08
2022-08-18T00:33:40.092Z,2.20
2022-08-18T00:38:47.217Z,1.85
2022-08-18T00:43:54.608Z,1.71
2022-08-18T00:49:01.801Z,1.81
2022-08-18T00:54:09.091Z,2.06
2022-08-18T00:59:16.297Z,1.94
2022-08-18T01:04:23.591Z,1.85
2022-08-18T01:09:30.850Z,1.73
2022-08-18T01:14:38.047Z,1.79
2022-08-18T01:19:45.234Z,1.58
2022-08-18T01:24:52.577Z,1.53
2022-08-18T01:29:59.761Z,1.86
2022-08-18T01:35:07.025Z,1.76
2022-08-18T01:41:17.456Z,1.64
2022-08-18T01:45:20.997Z,1.80
2022-08-18T01:50:28.123Z,1.77
2022-08-18T01:55:35.383Z,1.72
2022-08-18T02:00:42.534Z,1.69
2022-08-18T02:05:49.878Z,1.84
2022-08-18T02:10:56.978Z,1.86
2022-08-18T02:16:04.377Z,2.06
2022-08-18T02:21:12.508Z,1.89
2022-08-18T02:26:19.779Z,1.60
2022-08-18T02:31:26.993Z,1.66
2022-08-18T02:36:34.162Z,1.57
2022-08-18T02:41:41.154Z,1.44
2022-08-18T02:46:48.369Z,1.65
2022-08-18T02:51:55.457Z,1.59
2022-08-18T02:57:02.457Z,1.96
2022-08-18T03:02:09.811Z,1.79
2022-08-18T03:07:16.794Z,1.71
2022-08-18T03:12:23.952Z,1.69
2022-08-18T03:17:31.008Z,1.73
2022-08-18T03:22:38.139Z,1.63
2022-08-18T03:27:44.730Z,1.91
2022-08-18T03:32:51.821Z,1.73
2022-08-18T03:37:58.897Z,1.78
2022-08-18T03:43:06.087Z,1.64
2022-08-18T03:48:12.635Z,1.76
2022-08-18T03:53:19.720Z,1.82
2022-08-18T03:58:26.797Z,1.95
2022-08-18T04:03:33.815Z,2.00
2022-08-18T04:08:40.801Z,2.03
2022-08-18T04:13:47.893Z,1.98
2022-08-18T04:18:54.967Z,2.50
2022-08-18T04:24:02.030Z,2.20
2022-08-18T04:29:09.130Z,2.06
2022-08-18T04:34:16.154Z,2.12
2022-08-18T04:39:23.110Z,2.30
2022-08-18T04:44:30.134Z,2.00
2022-08-18T04:49:37.151Z,2.36
2022-08-18T04:54:44.382Z,2.18
2022-08-18T04:59:51.366Z,2.11
2022-08-18T05:04:58.462Z,2.32
2022-08-18T05:10:05.434Z,2.49
2022-08-18T05:15:15.095Z,2.43
2022-08-18T05:20:22.092Z,2.44
2022-08-18T05:25:29.335Z,2.48
2022-08-18T05:30:43.034Z,2.30
2022-08-18T05:35:39.379Z,2.67
2022-08-18T05:40:46.463Z,2.45
2022-08-18T05:45:53.758Z,2.36
2022-08-18T05:51:00.781Z,2.44
2022-08-18T05:56:08.122Z,2.44
2022-08-18T06:01:15.135Z,2.67
2022-08-18T06:06:22.211Z,2.33
2022-08-18T06:11:29.555Z,2.27
2022-08-18T06:16:36.754Z,2.51
2022-08-18T06:21:43.911Z,2.46
2022-08-18T06:26:52.410Z,2.00
2022-08-18T06:31:59.479Z,2.26
2022-08-18T06:37:06.626Z,2.16
2022-08-18T06:42:13.619Z,2.78
2022-08-18T06:47:20.897Z,2.02
2022-08-18T06:52:28.072Z,1.97
2022-08-18T06:57:35.357Z,2.47
2022-08-18T07:02:42.332Z,2.34
2022-08-18T07:07:49.572Z,2.02
2022-08-18T07:12:56.844Z,2.10
2022-08-18T07:18:04.497Z,1.91
2022-08-18T07:23:11.519Z,2.20
2022-08-18T07:28:18.526Z,2.26
2022-08-18T07:33:26.497Z,2.15
2022-08-18T07:38:43.003Z,2.44
2022-08-18T07:43:40.315Z,2.48
2022-08-18T07:48:47.520Z,1.87
2022-08-18T07:53:56.612Z,2.59
2022-08-18T07:59:01.268Z,2.41
2022-08-18T08:04:08.321Z,2.26
2022-08-18T08:09:16.884Z,2.55
2022-08-18T08:14:26.582Z,2.68
2022-08-18T08:19:58.433Z,2.98
2022-08-18T08:24:37.835Z,2.74
2022-08-18T08:29:45.584Z,3.31
2022-08-18T08:34:52.589Z,3.39
2022-08-18T08:39:59.776Z,3.65
2022-08-18T08:45:06.751Z,3.15
2022-08-18T08:50:17.277Z,3.42
2022-08-18T08:55:14.337Z,3.49
2022-08-18T09:00:21.406Z,3.27
2022-08-18T09:05:28.411Z,2.87
2022-08-18T09:10:35.648Z,2.66
2022-08-18T09:15:42.645Z,3.03
2022-08-18T09:20:49.754Z,2.59
2022-08-18T09:25:56.773Z,3.25
2022-08-18T09:31:03.777Z,3.17
2022-08-18T09:36:10.564Z,3.04
2022-08-18T09:41:17.549Z,2.90
2022-08-18T09:46:24.531Z,2.94
2022-08-18T09:51:31.067Z,2.62
2022-08-18T09:56:38.102Z,3.21
2022-08-18T10:01:52.621Z,2.64
2022-08-18T10:06:51.736Z,3.13
2022-08-18T10:11:57.835Z,3.12
2022-08-18T10:17:23.375Z,3.13
2022-08-18T10:22:11.655Z,2.71
2022-08-18T10:27:18.330Z,2.92
2022-08-18T10:32:25.345Z,2.92
2022-08-18T10:37:32.029Z,2.75
2022-08-18T10:42:39.088Z,2.88
2022-08-18T10:47:47.206Z,3.16
2022-08-18T10:53:23.867Z,3.01
2022-08-18T10:57:59.548Z,3.06
2022-08-18T11:03:42.795Z,3.12
2022-08-18T11:08:16.091Z,3.00
2022-08-18T11:13:19.886Z,2.99
2022-08-18T11:18:26.451Z,3.00
2022-08-18T11:23:33.450Z,2.57
2022-08-18T11:28:45.008Z,2.97
2022-08-18T11:33:46.572Z,2.73
2022-08-18T11:38:53.306Z,3.12
2022-08-18T11:44:00.365Z,2.71
2022-08-18T11:49:07.717Z,2.66
2022-08-18T11:54:14.252Z,2.75
2022-08-18T11:59:20.925Z,2.95
2022-08-18T12:04:29.063Z,2.96
2022-08-18T12:10:15.866Z,2.56
2022-08-18T12:14:40.853Z,2.64
2022-08-18T12:19:47.589Z,2.53
2022-08-18T12:24:54.194Z,2.76
2022-08-18T12:30:01.500Z,2.73
2022-08-18T12:35:09.417Z,2.69
2022-08-18T12:40:15.251Z,2.47
2022-08-18T12:45:22.197Z,2.31
2022-08-18T12:50:31.076Z,2.45
2022-08-18T12:55:36.009Z,2.67
2022-08-18T13:00:42.804Z,2.82
2022-08-18T13:05:49.736Z,2.73
2022-08-18T13:10:58.343Z,2.71
2022-08-18T13:16:03.562Z,2.86
2022-08-18T13:21:09.683Z,2.54
2022-08-18T13:26:16.679Z,2.89
2022-08-18T13:31:23.866Z,2.75
2022-08-18T13:36:30.925Z,2.82
2022-08-18T13:41:38.152Z,3.34
2022-08-18T13:46:44.735Z,3.21
2022-08-18T13:51:51.880Z,3.26
2022-08-18T13:56:58.905Z,2.95
2022-08-18T14:02:08.644Z,3.18
2022-08-18T14:07:13.543Z,3.07
2022-08-18T14:12:22.624Z,3.13
2022-08-18T14:17:25.710Z,2.81
2022-08-18T14:22:32.870Z,3.30
2022-08-18T14:27:39.388Z,3.24
2022-08-18T14:32:49.176Z,3.14
2022-08-18T14:37:53.377Z,3.45
2022-08-18T14:42:59.845Z,3.45
2022-08-18T14:48:06.570Z,4.09
2022-08-18T14:53:13.050Z,4.03
2022-08-18T14:58:20.752Z,3.47
2022-08-18T15:03:30.964Z,3.62
2022-08-18T15:08:34.286Z,3.20
2022-08-18T15:13:40.924Z,3.77
2022-08-18T15:18:47.957Z,3.64
2022-08-18T15:23:58.290Z,3.58
2022-08-18T15:29:01.524Z,3.70
2022-08-18T15:34:08.150Z,3.48
2022-08-18T15:39:14.817Z,3.64
2022-08-18T15:44:21.970Z,3.68
2022-08-18T15:49:29.081Z,3.72
2022-08-18T15:54:35.645Z,3.21
2022-08-18T15:59:42.697Z,3.59
2022-08-18T16:04:49.362Z,3.59
2022-08-18T16:09:55.952Z,4.12
2022-08-18T16:15:03.148Z,3.77
2022-08-18T16:20:10.113Z,3.64
2022-08-18T16:25:17.283Z,3.72
2022-08-18T16:30:24.400Z,3.62
2022-08-18T16:35:31.697Z,3.65
2022-08-18T16:40:38.731Z,3.58
2022-08-18T16:45:45.795Z,3.73
2022-08-18T16:50:57.133Z,3.51
2022-08-18T16:55:54.425Z,3.70
2022-08-18T17:01:04.431Z,3.72
2022-08-18T17:06:02.630Z,3.51
2022-08-18T17:11:09.837Z,3.80
2022-08-18T17:16:18.735Z,3.67
2022-08-18T17:21:28.458Z,3.35
2022-08-18T17:26:35.865Z,3.49
2022-08-18T17:31:43.134Z,3.55
2022-08-18T17:36:52.872Z,3.70
2022-08-18T17:41:56.906Z,3.71
2022-08-18T17:47:04.020Z,3.78
2022-08-18T17:52:12.870Z,3.99
2022-08-18T17:57:19.884Z,3.84
2022-08-18T18:02:29.747Z,4.07
2022-08-18T18:07:33.670Z,3.95
2022-08-18T18:12:40.822Z,4.09
2022-08-18T18:17:47.877Z,4.16
2022-08-18T18:22:55.060Z,4.09
2022-08-18T18:28:02.136Z,4.03
2022-08-18T18:33:09.259Z,3.69
2022-08-18T18:38:16.348Z,4.41
2022-08-18T18:43:23.426Z,4.17
2022-08-18T18:48:51.730Z,4.34
2022-08-18T18:53:37.174Z,3.98
2022-08-18T18:58:44.156Z,4.70
2022-08-18T19:03:51.286Z,4.24
2022-08-18T19:08:58.237Z,4.57
2022-08-18T19:14:07.469Z,4.88
2022-08-18T19:19:37.051Z,4.30
2022-08-18T19:24:19.034Z,4.67
2022-08-18T19:29:26.072Z,4.64
2022-08-18T19:34:33.154Z,5.05
2022-08-18T19:39:40.160Z,4.90
2022-08-18T19:45:00.315Z,5.09
2022-08-18T19:49:53.728Z,5.66
2022-08-18T19:55:00.885Z,5.26
2022-08-18T20:00:07.877Z,4.96
2022-08-18T20:05:14.979Z,5.46
2022-08-18T20:10:21.949Z,4.80
2022-08-18T20:15:29.090Z,4.62
2022-08-18T20:20:36.125Z,5.73
2022-08-18T20:25:43.250Z,5.71
2022-08-18T20:30:50.266Z,5.25
2022-08-18T20:35:57.267Z,5.43
2022-08-18T20:41:04.365Z,5.67
2022-08-18T20:46:11.371Z,5.25
2022-08-18T20:51:18.439Z,5.35
2022-08-18T20:56:32.325Z,5.47
2022-08-18T21:01:32.074Z,5.69
2022-08-18T21:06:39.072Z,4.94
2022-08-18T21:11:46.284Z,4.78
2022-08-18T21:16:53.323Z,5.18
2022-08-18T21:22:00.595Z,5.63
2022-08-18T21:27:07.886Z,5.29
2022-08-18T21:32:15.606Z,4.90
2022-08-18T21:37:22.694Z,4.71
2022-08-18T21:42:31.167Z,5.12
2022-08-18T21:47:38.197Z,5.27
2022-08-18T21:52:45.405Z,5.33
2022-08-18T21:57:52.423Z,5.69
2022-08-18T22:02:59.560Z,5.08
2022-08-18T22:08:06.741Z,5.29
2022-08-18T22:13:13.886Z,5.11
2022-08-18T22:18:23.402Z,5.65
2022-08-18T22:23:32.169Z,5.28
2022-08-18T22:28:39.927Z,4.95
2022-08-18T22:33:46.950Z,5.29
2022-08-18T22:38:53.988Z,5.44
2022-08-18T22:44:01.125Z,5.18
2022-08-18T22:49:08.114Z,5.77
2022-08-18T22:54:15.387Z,5.77
2022-08-18T22:59:22.422Z,6.37
2022-08-18T23:04:29.586Z,6.57
2022-08-18T23:09:36.554Z,6.75
2022-08-18T23:14:43.555Z,6.54
2022-08-18T23:19:52.168Z,6.68
2022-08-18T23:24:57.175Z,7.31
2022-08-18T23:30:04.349Z,6.93
2022-08-18T23:35:11.333Z,6.76
2022-08-18T23:40:18.352Z,7.51
2022-08-18T23:45:25.367Z,7.42
2022-08-18T23:50:32.360Z,6.87
2022-08-18T23:55:39.497Z,7.22
